Time;durP1;ratioP1;P1;durP2;ratioP2;P2;SDS_P1;SDS_P2;PMS_P1;PMS_P2;Temp;Humidity;BMP_temperature;BMP_pressure;BME280_temperature;BME280_humidity;BME280_pressure;Samples;Min_cycle;Max_cycle;Signal;HPM_P1;HPM_P2
2021/01/19 00:01:31;;;;;;;8.30;5.90;;;;;;;;;;5066623;28;20052;-63
2021/01/19 00:03:56;;;;;;;6.47;4.90;;;;;;;;;;5074872;28;20056;-63
2021/01/19 00:06:21;;;;;;;8.73;6.07;;;;;;;;;;5075276;28;20055;-63
2021/01/19 00:08:47;;;;;;;5.60;4.70;;;;;;;;;;5072017;28;20498;-65
2021/01/19 00:11:12;;;;;;;2.27;1.00;;;;;;;;;;5075062;28;20103;-63
2021/01/19 00:13:37;;;;;;;6.80;4.63;;;;;;;;;;5075007;28;20032;-64
2021/01/19 00:16:02;;;;;;;5.57;5.07;;;;;;;;;;5073730;28;20103;-64
2021/01/19 00:18:28;;;;;;;4.70;2.63;;;;;;;;;;5052620;28;20373;-64
2021/01/19 00:20:53;;;;;;;4.70;4.00;;;;;;;;;;5054163;28;20032;-64
2021/01/19 00:23:18;;;;;;;2.97;1.93;;;;;;;;;;5069258;28;20023;-63
2021/01/19 00:25:44;;;;;;;4.83;4.43;;;;;;;;;;5074712;28;20024;-64
2021/01/19 00:28:10;;;;;;;4.17;3.47;;;;;;;;;;5057746;28;20404;-64
2021/01/19 00:30:42;;;;;;;2.97;1.63;;;;;;;;;;5070489;28;20024;-64
2021/01/19 00:33:08;;;;;;;6.30;4.00;;;;;;;;;;5064804;28;20025;-64
2021/01/19 00:35:33;;;;;;;5.30;3.80;;;;;;;;;;5068527;28;20032;-64
2021/01/19 00:37:59;;;;;;;4.23;3.70;;;;;;;;;;5074520;28;20020;-64
2021/01/19 00:40:25;;;;;;;4.20;3.80;;;;;;;;;;5070172;28;20398;-64
2021/01/19 00:42:50;;;;;;;4.93;3.37;;;;;;;;;;5074425;28;20024;-64
2021/01/19 00:45:15;;;;;;;3.13;2.80;;;;;;;;;;5074284;28;20388;-64
2021/01/19 00:47:40;;;;;;;2.50;1.23;;;;;;;;;;5074234;28;20020;-64
2021/01/19 00:50:06;;;;;;;1.97;1.10;;;;;;;;;;5061201;28;20349;-65
2021/01/19 00:52:31;;;;;;;2.13;1.83;;;;;;;;;;5062950;28;20533;-65
2021/01/19 00:54:57;;;;;;;1.77;0.90;;;;;;;;;;5074624;28;20047;-65
2021/01/19 00:57:22;;;;;;;3.40;2.63;;;;;;;;;;5073807;28;20063;-65
2021/01/19 00:59:47;;;;;;;2.93;2.47;;;;;;;;;;5070370;28;20417;-65
2021/01/19 01:02:12;;;;;;;3.50;3.20;;;;;;;;;;5072583;28;20028;-65
2021/01/19 01:04:37;;;;;;;3.97;2.80;;;;;;;;;;5074218;28;20013;-65
2021/01/19 01:07:03;;;;;;;2.83;2.00;;;;;;;;;;5074302;28;20099;-65
2021/01/19 01:09:28;;;;;;;2.07;1.23;;;;;;;;;;5067268;28;20025;-65
2021/01/19 01:11:53;;;;;;;1.17;0.87;;;;;;;;;;5066522;28;20016;-65
2021/01/19 01:14:18;;;;;;;3.83;2.40;;;;;;;;;;5072714;28;20012;-64
2021/01/19 01:16:43;;;;;;;3.40;3.10;;;;;;;;;;5066044;28;20044;-65
2021/01/19 01:19:09;;;;;;;4.33;2.90;;;;;;;;;;5071247;28;20103;-65
2021/01/19 01:21:38;;;;;;;4.23;2.97;;;;;;;;;;5073814;28;20108;-65
2021/01/19 01:24:06;;;;;;;1.57;1.47;;;;;;;;;;5071501;28;20025;-65
2021/01/19 01:26:32;;;;;;;2.93;2.70;;;;;;;;;;5071215;28;20023;-65
2021/01/19 01:28:57;;;;;;;3.23;2.50;;;;;;;;;;5060647;28;20370;-65
2021/01/19 01:31:22;;;;;;;2.60;1.60;;;;;;;;;;5071587;28;20597;-64
2021/01/19 01:33:48;;;;;;;1.60;1.00;;;;;;;;;;5073567;28;20046;-64
2021/01/19 01:36:13;;;;;;;3.53;2.70;;;;;;;;;;5072953;28;20021;-65
2021/01/19 01:38:38;;;;;;;4.17;3.13;;;;;;;;;;5069702;28;20392;-65
2021/01/19 01:41:11;;;;;;;4.23;3.20;;;;;;;;;;5070854;28;20059;-64
2021/01/19 01:43:36;;;;;;;3.00;2.50;;;;;;;;;;5071267;28;20024;-64
2021/01/19 01:46:01;;;;;;;6.30;1.87;;;;;;;;;;5059843;28;20095;-64
2021/01/19 01:48:27;;;;;;;3.30;2.40;;;;;;;;;;5069971;28;20020;-64
2021/01/19 01:50:52;;;;;;;4.00;2.40;;;;;;;;;;5070826;28;20062;-64
2021/01/19 01:53:17;;;;;;;4.43;2.00;;;;;;;;;;5070490;28;20356;-64
2021/01/19 01:55:42;;;;;;;1.10;0.83;;;;;;;;;;5072508;28;20020;-65
2021/01/19 01:58:08;;;;;;;4.47;1.93;;;;;;;;;;5071255;28;20067;-64
2021/01/19 02:00:33;;;;;;;3.90;2.70;;;;;;;;;;5067623;28;20477;-64
2021/01/19 02:02:59;;;;;;;3.83;1.73;;;;;;;;;;5071053;28;20028;-64
2021/01/19 02:05:25;;;;;;;2.33;1.17;;;;;;;;;;5062587;28;20027;-63
2021/01/19 02:07:58;;;;;;;2.40;2.20;;;;;;;;;;5071970;28;20066;-64
2021/01/19 02:10:42;;;;;;;3.37;2.33;;;;;;;;;;5065088;28;20024;-63
2021/01/19 02:13:26;;;;;;;1.57;1.47;;;;;;;;;;5068331;28;20240;-64
2021/01/19 02:15:57;;;;;;;3.47;1.50;;;;;;;;;;5071910;28;20070;-63
2021/01/19 02:18:28;;;;;;;2.23;2.03;;;;;;;;;;5071315;28;20013;-64
2021/01/19 02:21:03;;;;;;;1.90;0.70;;;;;;;;;;5069217;28;20027;-64
2021/01/19 02:23:47;;;;;;;3.50;2.03;;;;;;;;;;5065650;28;20020;-64
2021/01/19 02:29:00;;;;;;;;;;;;;;;;;;5125869;27;20156;-64
2021/01/19 02:31:43;;;;;;;1.60;1.50;;;;;;;;;;5110018;28;19947;-64
2021/01/19 02:34:29;;;;;;;2.37;1.83;;;;;;;;;;5104165;28;20059;-64
2021/01/19 02:36:59;;;;;;;4.10;2.65;;;;;;;;;;5109109;28;20032;-64
2021/01/19 02:39:30;;;;;;;2.37;1.83;;;;;;;;;;5105417;28;20059;-63
2021/01/19 02:41:56;;;;;;;2.17;1.70;;;;;;;;;;5108460;28;20024;-63
2021/01/19 02:44:24;;;;;;;2.53;2.33;;;;;;;;;;5108175;28;20038;-63
2021/01/19 02:46:51;;;;;;;2.53;0.80;;;;;;;;;;5109858;28;20028;-63
2021/01/19 02:49:16;;;;;;;1.77;1.17;;;;;;;;;;5103194;28;20016;-63
2021/01/19 02:51:42;;;;;;;2.60;1.90;;;;;;;;;;5109899;28;20019;-63
2021/01/19 02:54:07;;;;;;;2.33;1.57;;;;;;;;;;5109002;28;20020;-63
2021/01/19 02:56:32;;;;;;;2.77;2.13;;;;;;;;;;5109208;28;20012;-63
2021/01/19 02:58:58;;;;;;;3.00;2.30;;;;;;;;;;5105351;28;20027;-63
2021/01/19 03:01:29;;;;;;;1.97;1.63;;;;;;;;;;5108145;28;20478;-63
2021/01/19 03:03:54;;;;;;;3.90;1.67;;;;;;;;;;5107983;28;20051;-63
2021/01/19 03:06:20;;;;;;;3.50;2.87;;;;;;;;;;5101505;28;20100;-63
2021/01/19 03:08:46;;;;;;;2.83;2.07;;;;;;;;;;5105774;28;20540;-63
2021/01/19 03:11:15;;;;;;;2.83;2.13;;;;;;;;;;5109169;28;20011;-63
2021/01/19 03:13:42;;;;;;;1.30;1.00;;;;;;;;;;5109071;28;20448;-63
2021/01/19 03:16:08;;;;;;;3.00;1.70;;;;;;;;;;5108613;28;20143;-63
2021/01/19 03:18:34;;;;;;;3.17;2.87;;;;;;;;;;5096261;28;20073;-63
2021/01/19 03:21:00;;;;;;;3.10;2.37;;;;;;;;;;5100471;28;20016;-63
2021/01/19 03:23:25;;;;;;;2.60;2.00;;;;;;;;;;5108111;28;20024;-64
2021/01/19 03:25:50;;;;;;;3.53;2.40;;;;;;;;;;5109397;28;20026;-63
2021/01/19 03:28:16;;;;;;;3.67;3.37;;;;;;;;;;5108867;28;20393;-63
2021/01/19 03:30:41;;;;;;;3.67;3.00;;;;;;;;;;5104045;28;20500;-63
2021/01/19 03:33:06;;;;;;;2.80;1.53;;;;;;;;;;5108642;28;20223;-63
2021/01/19 03:35:31;;;;;;;5.30;2.60;;;;;;;;;;5108749;28;20019;-63
2021/01/19 03:37:56;;;;;;;5.47;3.20;;;;;;;;;;5107001;28;20049;-63
2021/01/19 03:40:22;;;;;;;4.13;2.90;;;;;;;;;;5090812;28;20024;-63
2021/01/19 03:42:47;;;;;;;2.07;1.00;;;;;;;;;;5094906;28;20270;-63
2021/01/19 03:45:12;;;;;;;2.27;1.43;;;;;;;;;;5095167;28;20020;-63
2021/01/19 03:47:37;;;;;;;4.00;3.07;;;;;;;;;;5095070;28;20502;-63
2021/01/19 03:50:03;;;;;;;2.97;2.60;;;;;;;;;;5090428;28;20379;-63
2021/01/19 03:52:28;;;;;;;5.53;3.30;;;;;;;;;;5094417;28;20020;-62
2021/01/19 03:54:53;;;;;;;4.03;1.27;;;;;;;;;;5094956;28;20478;-63
2021/01/19 03:57:18;;;;;;;2.20;1.60;;;;;;;;;;5094640;28;20024;-62
2021/01/19 03:59:44;;;;;;;5.90;3.53;;;;;;;;;;5091535;28;20445;-63
2021/01/19 04:02:09;;;;;;;3.57;2.40;;;;;;;;;;5092960;28;20459;-63
2021/01/19 04:04:34;;;;;;;3.73;2.40;;;;;;;;;;5093222;28;20038;-63
2021/01/19 04:06:59;;;;;;;2.97;2.60;;;;;;;;;;5094408;28;20035;-63
2021/01/19 04:09:24;;;;;;;3.73;1.97;;;;;;;;;;5090997;28;20012;-63
2021/01/19 04:11:50;;;;;;;5.43;3.10;;;;;;;;;;5094328;28;20016;-62
2021/01/19 04:14:15;;;;;;;3.97;3.57;;;;;;;;;;5094811;28;20552;-63
2021/01/19 04:16:40;;;;;;;4.60;2.90;;;;;;;;;;5094412;28;20089;-63
2021/01/19 04:19:05;;;;;;;4.37;3.33;;;;;;;;;;5091372;28;20020;-63
2021/01/19 04:21:32;;;;;;;5.00;3.07;;;;;;;;;;5092785;28;20048;-63
2021/01/19 04:23:58;;;;;;;3.10;2.13;;;;;;;;;;5093120;28;20038;-63
2021/01/19 04:26:23;;;;;;;1.73;1.07;;;;;;;;;;5094352;28;20028;-63
2021/01/19 04:28:48;;;;;;;5.93;3.47;;;;;;;;;;5080608;28;20067;-62
2021/01/19 04:31:13;;;;;;;6.57;2.63;;;;;;;;;;5085080;28;20008;-63
2021/01/19 04:33:38;;;;;;;3.87;2.93;;;;;;;;;;5080082;28;20051;-63
2021/01/19 04:36:04;;;;;;;5.37;3.57;;;;;;;;;;5087129;28;20082;-63
2021/01/19 04:38:29;;;;;;;2.47;2.00;;;;;;;;;;5091850;28;20063;-64
2021/01/19 04:40:55;;;;;;;5.50;3.87;;;;;;;;;;5091144;28;20023;-63
2021/01/19 04:43:21;;;;;;;1.87;1.37;;;;;;;;;;5093537;28;20516;-64
2021/01/19 04:45:46;;;;;;;2.27;1.17;;;;;;;;;;5092846;28;20020;-63
2021/01/19 04:48:12;;;;;;;4.30;3.00;;;;;;;;;;5093819;28;20028;-63
2021/01/19 04:50:37;;;;;;;6.07;3.80;;;;;;;;;;5088281;28;20016;-63
2021/01/19 04:53:02;;;;;;;5.93;4.30;;;;;;;;;;5093466;28;20374;-63
2021/01/19 04:55:28;;;;;;;6.17;4.40;;;;;;;;;;5093487;28;20017;-63
2021/01/19 04:57:57;;;;;;;3.47;2.33;;;;;;;;;;5093615;28;20058;-63
2021/01/19 05:00:27;;;;;;;7.13;4.67;;;;;;;;;;5090205;28;20032;-63
2021/01/19 05:02:53;;;;;;;5.30;4.23;;;;;;;;;;5093372;28;20024;-63
2021/01/19 05:05:23;;;;;;;6.53;4.10;;;;;;;;;;5079753;28;20082;-63
2021/01/19 05:07:54;;;;;;;5.43;3.90;;;;;;;;;;5092200;28;20028;-63
2021/01/19 05:13:31;;;;;;;5.70;5.10;;;;;;;;;;5088793;28;20020;-63
2021/01/19 05:16:01;;;;;;;6.72;4.68;;;;;;;;;;5082000;28;20097;-63
2021/01/19 05:18:27;;;;;;;7.60;4.40;;;;;;;;;;5090862;28;20028;-63
2021/01/19 05:20:52;;;;;;;4.93;1.97;;;;;;;;;;5090294;28;20033;-63
2021/01/19 05:23:22;;;;;;;6.87;4.20;;;;;;;;;;5091808;28;20032;-63
2021/01/19 05:25:54;;;;;;;6.93;5.00;;;;;;;;;;5091295;28;20024;-63
2021/01/19 05:28:29;;;;;;;4.07;3.43;;;;;;;;;;5087188;28;20399;-63
2021/01/19 05:30:54;;;;;;;6.73;3.40;;;;;;;;;;5089983;28;20024;-63
2021/01/19 05:33:20;;;;;;;6.73;4.10;;;;;;;;;;5092742;28;20016;-63
2021/01/19 05:35:45;;;;;;;6.20;3.60;;;;;;;;;;5089291;28;20095;-63
2021/01/19 05:38:10;;;;;;;5.17;2.30;;;;;;;;;;5088991;28;20020;-63
2021/01/19 05:40:45;;;;;;;2.20;1.10;;;;;;;;;;5087965;28;20024;-63
2021/01/19 05:43:10;;;;;;;5.53;3.05;;;;;;;;;;5091491;28;20058;-63
2021/01/19 05:45:36;;;;;;;10.83;4.57;;;;;;;;;;5092936;28;20059;-63
2021/01/19 05:48:12;;;;;;;5.27;2.93;;;;;;;;;;5092662;28;20059;-63
2021/01/19 05:50:37;;;;;;;5.70;3.77;;;;;;;;;;5075308;28;20012;-63
2021/01/19 05:53:11;;;;;;;4.33;3.30;;;;;;;;;;5092233;28;20486;-63
2021/01/19 05:55:36;;;;;;;6.43;3.50;;;;;;;;;;5079918;28;20051;-63
2021/01/19 05:58:10;;;;;;;6.17;3.50;;;;;;;;;;5091285;28;20048;-64
2021/01/19 06:00:36;;;;;;;5.57;3.13;;;;;;;;;;5088115;28;20024;-63
2021/01/19 06:03:13;;;;;;;2.40;1.10;;;;;;;;;;5092501;28;20027;-63
2021/01/19 06:05:38;;;;;;;7.53;3.73;;;;;;;;;;5083652;28;20103;-63
2021/01/19 06:08:04;;;;;;;4.80;3.30;;;;;;;;;;5092011;28;20103;-63
2021/01/19 06:10:30;;;;;;;5.97;3.43;;;;;;;;;;5088729;28;20043;-62
2021/01/19 06:12:58;;;;;;;5.53;2.93;;;;;;;;;;5090620;28;20040;-63
2021/01/19 06:15:27;;;;;;;5.43;2.70;;;;;;;;;;5090976;28;20070;-63
2021/01/19 06:17:53;;;;;;;4.80;2.53;;;;;;;;;;5091310;28;20046;-64
2021/01/19 06:20:18;;;;;;;5.33;2.73;;;;;;;;;;5087891;28;20481;-63
2021/01/19 06:22:43;;;;;;;4.87;2.77;;;;;;;;;;5092261;28;20016;-63
2021/01/19 06:25:12;;;;;;;4.00;1.90;;;;;;;;;;5091809;28;20012;-63
2021/01/19 06:27:37;;;;;;;6.10;2.60;;;;;;;;;;5091676;28;20454;-63
2021/01/19 06:30:02;;;;;;;5.67;2.30;;;;;;;;;;5079199;28;20020;-63
2021/01/19 06:32:29;;;;;;;5.90;2.50;;;;;;;;;;5092174;28;20110;-64
2021/01/19 06:34:54;;;;;;;4.43;1.87;;;;;;;;;;5092252;28;20031;-64
2021/01/19 06:37:30;;;;;;;5.90;2.40;;;;;;;;;;5087074;28;20013;-64
2021/01/19 06:39:56;;;;;;;5.03;1.87;;;;;;;;;;5085693;28;20387;-64
2021/01/19 06:42:25;;;;;;;7.30;2.50;;;;;;;;;;5084909;28;20030;-64
2021/01/19 06:44:53;;;;;;;4.47;1.60;;;;;;;;;;5090966;28;20035;-64
2021/01/19 06:47:19;;;;;;;4.83;2.00;;;;;;;;;;5091901;28;20401;-64
2021/01/19 06:49:44;;;;;;;4.67;1.90;;;;;;;;;;5088803;28;20017;-64
2021/01/19 06:52:10;;;;;;;6.17;1.73;;;;;;;;;;5090711;28;20021;-64
2021/01/19 06:54:54;;;;;;;5.17;1.73;;;;;;;;;;5091535;28;20021;-64
2021/01/19 06:57:38;;;;;;;4.27;1.87;;;;;;;;;;5091506;28;20535;-64
2021/01/19 07:00:10;;;;;;;4.40;1.33;;;;;;;;;;5082917;28;20489;-64
2021/01/19 07:02:37;;;;;;;4.63;1.63;;;;;;;;;;5089773;28;20032;-65
2021/01/19 07:05:12;;;;;;;5.63;1.40;;;;;;;;;;5091754;28;20105;-63
2021/01/19 07:07:39;;;;;;;4.50;1.47;;;;;;;;;;5089751;28;20576;-63
2021/01/19 07:10:06;;;;;;;6.43;1.93;;;;;;;;;;5088751;28;20169;-63
2021/01/19 07:12:50;;;;;;;5.23;1.93;;;;;;;;;;5089822;28;20027;-62
2021/01/19 07:15:19;;;;;;;4.50;1.73;;;;;;;;;;5090079;28;20068;-63
2021/01/19 07:17:47;;;;;;;8.10;1.20;;;;;;;;;;5090648;28;20024;-63
2021/01/19 07:20:13;;;;;;;4.10;1.20;;;;;;;;;;5090421;28;20243;-63
2021/01/19 07:22:57;;;;;;;4.30;1.20;;;;;;;;;;5094545;28;20028;-63
2021/01/19 07:25:22;;;;;;;4.13;1.40;;;;;;;;;;5091120;28;20762;-62
2021/01/19 07:27:47;;;;;;;4.53;1.03;;;;;;;;;;5092702;28;20035;-62
2021/01/19 07:30:14;;;;;;;1.47;1.20;;;;;;;;;;5081117;28;20017;-63
2021/01/19 07:32:39;;;;;;;3.83;1.03;;;;;;;;;;5094098;28;20946;-63
2021/01/19 07:35:06;;;;;;;3.40;1.00;;;;;;;;;;5093737;28;20099;-63
2021/01/19 07:37:32;;;;;;;5.20;1.00;;;;;;;;;;5080019;28;20024;-63
2021/01/19 07:39:57;;;;;;;3.13;0.83;;;;;;;;;;5075890;28;20127;-63
2021/01/19 07:42:23;;;;;;;4.27;1.07;;;;;;;;;;5092030;28;20115;-63
2021/01/19 07:44:59;;;;;;;4.93;1.37;;;;;;;;;;5091970;28;20074;-63
2021/01/19 07:47:57;;;;;;;3.33;1.03;;;;;;;;;;5089509;28;20382;-63
2021/01/19 07:50:22;;;;;;;4.57;0.80;;;;;;;;;;5049199;28;20039;-63
2021/01/19 07:52:47;;;;;;;3.30;1.17;;;;;;;;;;5094765;28;20020;-63
2021/01/19 07:55:21;;;;;;;6.50;1.10;;;;;;;;;;5093304;28;20462;-62
2021/01/19 07:57:48;;;;;;;5.70;1.27;;;;;;;;;;5094156;28;20028;-62
2021/01/19 08:00:19;;;;;;;4.00;0.80;;;;;;;;;;5087420;28;20031;-64
2021/01/19 08:02:44;;;;;;;2.83;0.70;;;;;;;;;;5084610;28;20028;-63
2021/01/19 08:05:09;;;;;;;1.67;0.40;;;;;;;;;;5090392;28;20035;-63
2021/01/19 08:07:42;;;;;;;3.73;1.00;;;;;;;;;;5091994;28;20035;-63
2021/01/19 08:10:17;;;;;;;4.17;0.70;;;;;;;;;;5091495;28;20217;-63
2021/01/19 08:12:42;;;;;;;;;;;;;;;;;;5079213;28;20031;-63
2021/01/19 08:15:08;;;;;;;4.63;1.48;;;;;;;;;;5091139;28;19908;-63
2021/01/19 08:17:35;;;;;;;2.40;0.80;;;;;;;;;;5094047;28;20390;-63
2021/01/19 08:20:04;;;;;;;3.67;0.70;;;;;;;;;;5086805;28;20110;-63
2021/01/19 08:22:29;;;;;;;6.07;0.90;;;;;;;;;;5079041;28;20024;-63
2021/01/19 08:24:59;;;;;;;3.30;1.17;;;;;;;;;;5092549;28;20035;-62
2021/01/19 08:27:26;;;;;;;2.47;0.67;;;;;;;;;;5087548;28;20396;-63
2021/01/19 08:29:51;;;;;;;7.77;1.00;;;;;;;;;;5090746;28;20421;-63
2021/01/19 08:32:18;;;;;;;3.37;1.10;;;;;;;;;;5088970;28;20016;-64
2021/01/19 08:34:44;;;;;;;2.93;0.70;;;;;;;;;;5094228;28;20035;-64
2021/01/19 08:37:15;;;;;;;5.03;1.10;;;;;;;;;;5091976;28;20024;-64
2021/01/19 08:39:48;;;;;;;2.90;1.30;;;;;;;;;;5089995;28;20024;-64
2021/01/19 08:42:14;;;;;;;4.30;1.13;;;;;;;;;;5092633;28;20020;-63
2021/01/19 08:44:40;;;;;;;3.90;1.27;;;;;;;;;;5093556;28;20039;-64
2021/01/19 08:47:05;;;;;;;4.47;1.47;;;;;;;;;;5093859;28;20089;-64
2021/01/19 08:49:35;;;;;;;1.87;0.70;;;;;;;;;;5085909;28;20020;-64
2021/01/19 08:52:02;;;;;;;2.17;0.70;;;;;;;;;;5074293;28;20047;-64
2021/01/19 08:54:31;;;;;;;3.10;1.00;;;;;;;;;;5092088;28;20024;-65
2021/01/19 08:56:56;;;;;;;5.30;1.40;;;;;;;;;;5092703;28;20047;-64
2021/01/19 08:59:21;;;;;;;2.77;0.77;;;;;;;;;;5090731;28;20079;-64
2021/01/19 09:01:48;;;;;;;3.17;0.97;;;;;;;;;;5093779;28;20073;-64
2021/01/19 09:04:21;;;;;;;5.37;0.80;;;;;;;;;;5086393;28;20499;-64
2021/01/19 09:06:46;;;;;;;5.57;1.07;;;;;;;;;;5088642;28;20455;-64
2021/01/19 09:09:18;;;;;;;4.90;1.20;;;;;;;;;;5070065;28;20032;-65
2021/01/19 09:11:44;;;;;;;3.90;1.07;;;;;;;;;;5085571;28;20024;-64
2021/01/19 09:14:10;;;;;;;5.57;0.80;;;;;;;;;;5093343;28;20032;-65
2021/01/19 09:16:36;;;;;;;1.83;0.30;;;;;;;;;;5093301;28;20368;-64
2021/01/19 09:19:03;;;;;;;3.33;0.80;;;;;;;;;;5089075;28;20402;-64
2021/01/19 09:21:28;;;;;;;3.73;0.80;;;;;;;;;;5088448;28;20020;-64
2021/01/19 09:23:54;;;;;;;3.13;0.90;;;;;;;;;;5081078;28;20023;-64
2021/01/19 09:26:19;;;;;;;3.37;1.23;;;;;;;;;;5091739;28;20055;-64
2021/01/19 09:28:45;;;;;;;3.63;0.73;;;;;;;;;;5088375;28;20079;-66
2021/01/19 09:31:13;;;;;;;4.07;0.80;;;;;;;;;;5090597;28;20449;-64
2021/01/19 09:33:39;;;;;;;2.23;0.73;;;;;;;;;;5092959;28;20534;-66
2021/01/19 09:36:10;;;;;;;3.33;0.60;;;;;;;;;;5093365;28;20069;-65
2021/01/19 09:38:37;;;;;;;4.83;0.90;;;;;;;;;;5090065;28;20024;-65
2021/01/19 09:41:02;;;;;;;3.63;1.27;;;;;;;;;;5092871;28;20015;-66
2021/01/19 09:43:28;;;;;;;2.77;0.90;;;;;;;;;;5092963;28;20463;-66
2021/01/19 09:46:01;;;;;;;4.13;0.83;;;;;;;;;;5091597;28;20032;-65
2021/01/19 09:48:28;;;;;;;2.53;0.83;;;;;;;;;;5090555;28;20024;-67
2021/01/19 09:50:57;;;;;;;4.03;0.50;;;;;;;;;;5089810;28;20466;-65
2021/01/19 09:53:22;;;;;;;2.90;0.50;;;;;;;;;;5091192;28;20117;-65
2021/01/19 09:55:48;;;;;;;4.83;0.80;;;;;;;;;;5092653;28;20051;-67
2021/01/19 09:58:19;;;;;;;4.23;0.73;;;;;;;;;;5093070;28;20367;-66
2021/01/19 10:00:44;;;;;;;2.87;0.53;;;;;;;;;;5090523;28;20031;-66
2021/01/19 10:03:13;;;;;;;3.67;0.63;;;;;;;;;;5086120;28;20387;-65
2021/01/19 10:05:38;;;;;;;5.23;1.13;;;;;;;;;;5084293;28;20028;-65
2021/01/19 10:08:04;;;;;;;4.03;1.30;;;;;;;;;;5092200;28;20386;-65
2021/01/19 10:10:36;;;;;;;3.90;0.97;;;;;;;;;;5087896;28;20065;-66
2021/01/19 10:13:03;;;;;;;6.73;1.03;;;;;;;;;;5092379;28;20540;-65
2021/01/19 10:15:28;;;;;;;3.43;0.87;;;;;;;;;;5091150;28;20034;-66
2021/01/19 10:17:57;;;;;;;2.83;0.60;;;;;;;;;;5091087;28;20457;-66
2021/01/19 10:20:29;;;;;;;5.40;1.07;;;;;;;;;;5089262;28;20300;-66
2021/01/19 10:22:56;;;;;;;4.17;0.80;;;;;;;;;;5088298;28;20028;-66
2021/01/19 10:25:36;;;;;;;3.93;0.87;;;;;;;;;;5090768;28;20032;-66
2021/01/19 10:28:03;;;;;;;3.27;0.93;;;;;;;;;;5091994;28;20040;-67
2021/01/19 10:30:32;;;;;;;5.60;1.00;;;;;;;;;;5088961;28;20016;-66
2021/01/19 10:32:58;;;;;;;3.50;0.60;;;;;;;;;;5080961;28;20035;-65
2021/01/19 10:35:37;;;;;;;3.60;0.83;;;;;;;;;;5070943;28;20016;-66
2021/01/19 10:38:04;;;;;;;5.63;0.90;;;;;;;;;;5085558;28;20103;-66
2021/01/19 10:40:30;;;;;;;3.93;0.50;;;;;;;;;;5087776;28;20049;-66
2021/01/19 10:42:55;;;;;;;6.03;1.47;;;;;;;;;;5091350;28;20024;-67
2021/01/19 10:45:28;;;;;;;4.27;0.80;;;;;;;;;;5075788;28;20486;-66
2021/01/19 10:47:53;;;;;;;3.80;0.90;;;;;;;;;;5079380;28;20457;-66
2021/01/19 10:50:20;;;;;;;4.20;0.50;;;;;;;;;;5091973;28;20026;-66
2021/01/19 10:52:53;;;;;;;4.93;1.20;;;;;;;;;;5093496;28;20048;-67
2021/01/19 10:55:18;;;;;;;6.43;1.33;;;;;;;;;;5094553;28;20106;-65
2021/01/19 10:57:43;;;;;;;1.93;0.70;;;;;;;;;;5093375;28;20110;-66
2021/01/19 11:00:09;;;;;;;5.70;1.33;;;;;;;;;;5091698;28;20455;-66
2021/01/19 11:02:34;;;;;;;3.13;0.70;;;;;;;;;;5091299;28;20035;-66
2021/01/19 11:04:59;;;;;;;2.47;0.57;;;;;;;;;;5086172;28;20068;-66
2021/01/19 11:07:24;;;;;;;3.53;0.90;;;;;;;;;;5092581;28;20032;-66
2021/01/19 11:09:50;;;;;;;6.20;1.47;;;;;;;;;;5086216;28;20448;-66
2021/01/19 11:12:18;;;;;;;5.70;1.10;;;;;;;;;;5088115;28;20045;-67
2021/01/19 11:14:43;;;;;;;3.53;0.87;;;;;;;;;;5092194;28;20008;-66
2021/01/19 11:17:09;;;;;;;5.20;1.00;;;;;;;;;;5086988;28;20020;-66
2021/01/19 11:19:34;;;;;;;5.10;0.93;;;;;;;;;;5086178;28;20071;-65
2021/01/19 11:21:59;;;;;;;6.70;1.23;;;;;;;;;;5089232;28;20020;-66
2021/01/19 11:24:24;;;;;;;2.97;0.70;;;;;;;;;;5082355;28;20016;-65
2021/01/19 11:26:49;;;;;;;6.80;1.30;;;;;;;;;;5087459;28;20016;-67
2021/01/19 11:29:15;;;;;;;3.27;0.70;;;;;;;;;;5088090;28;20532;-68
2021/01/19 11:31:40;;;;;;;4.63;1.40;;;;;;;;;;5092008;28;20048;-67
2021/01/19 11:34:06;;;;;;;3.30;1.00;;;;;;;;;;5091141;28;20029;-67
2021/01/19 11:36:34;;;;;;;4.57;1.37;;;;;;;;;;5087934;28;20024;-65
2021/01/19 11:39:00;;;;;;;3.13;1.07;;;;;;;;;;5090317;28;20311;-66
2021/01/19 11:41:27;;;;;;;2.77;1.00;;;;;;;;;;5094706;28;20020;-66
2021/01/19 11:43:53;;;;;;;1.50;0.57;;;;;;;;;;5090276;28;20038;-66
2021/01/19 11:46:22;;;;;;;2.87;1.00;;;;;;;;;;5094265;28;20068;-67
2021/01/19 11:48:47;;;;;;;3.03;1.10;;;;;;;;;;5090618;28;20131;-68
2021/01/19 11:51:16;;;;;;;3.83;1.17;;;;;;;;;;5089358;28;20095;-67
2021/01/19 11:53:42;;;;;;;3.93;1.00;;;;;;;;;;5100788;28;20027;-66
2021/01/19 11:56:07;;;;;;;3.00;0.80;;;;;;;;;;5087228;28;20016;-67
2021/01/19 11:58:32;;;;;;;3.37;0.70;;;;;;;;;;5077305;28;20124;-66
2021/01/19 12:00:58;;;;;;;1.53;0.33;;;;;;;;;;5086214;28;20012;-67
2021/01/19 12:03:23;;;;;;;3.40;0.63;;;;;;;;;;5088771;28;20020;-67
2021/01/19 12:05:48;;;;;;;2.63;0.83;;;;;;;;;;5083073;28;20032;-67
2021/01/19 12:08:13;;;;;;;5.33;0.70;;;;;;;;;;5094130;28;20031;-67
2021/01/19 12:10:43;;;;;;;2.60;0.67;;;;;;;;;;5091057;28;20099;-67
2021/01/19 12:13:08;;;;;;;4.07;0.70;;;;;;;;;;5094790;28;20012;-67
2021/01/19 12:15:35;;;;;;;4.03;0.60;;;;;;;;;;5094625;28;20012;-68
2021/01/19 12:18:01;;;;;;;4.30;0.83;;;;;;;;;;5094507;28;20050;-67
2021/01/19 12:20:26;;;;;;;4.93;0.60;;;;;;;;;;5091096;28;20453;-67
2021/01/19 12:22:51;;;;;;;3.47;0.67;;;;;;;;;;5090209;28;20013;-67
2021/01/19 12:25:17;;;;;;;2.43;0.60;;;;;;;;;;5082768;28;20020;-68
2021/01/19 12:27:42;;;;;;;3.33;0.60;;;;;;;;;;5073971;28;20044;-67
2021/01/19 12:30:07;;;;;;;1.93;0.50;;;;;;;;;;5083936;28;20429;-68
2021/01/19 12:32:32;;;;;;;3.43;0.73;;;;;;;;;;5079471;28;20032;-68
2021/01/19 12:34:58;;;;;;;2.67;0.80;;;;;;;;;;5094001;28;20015;-68
2021/01/19 12:37:23;;;;;;;4.00;0.70;;;;;;;;;;5093891;28;20027;-67
2021/01/19 12:39:49;;;;;;;3.30;0.40;;;;;;;;;;5089732;28;20023;-68
2021/01/19 12:42:14;;;;;;;5.90;0.53;;;;;;;;;;5094269;28;20445;-68
2021/01/19 12:44:40;;;;;;;2.47;0.43;;;;;;;;;;5094158;28;20058;-68
2021/01/19 12:47:05;;;;;;;2.40;0.60;;;;;;;;;;5088662;28;20015;-68
2021/01/19 12:49:30;;;;;;;2.20;0.60;;;;;;;;;;5089458;28;20012;-69
2021/01/19 12:51:55;;;;;;;4.47;1.03;;;;;;;;;;5094135;28;20027;-68
2021/01/19 12:54:20;;;;;;;1.90;0.83;;;;;;;;;;5093557;28;20016;-68
2021/01/19 12:56:46;;;;;;;3.90;1.00;;;;;;;;;;5094067;28;20023;-69
2021/01/19 12:59:11;;;;;;;2.33;0.67;;;;;;;;;;5088174;28;20035;-68
2021/01/19 13:01:37;;;;;;;4.93;1.13;;;;;;;;;;5093395;28;20034;-68
2021/01/19 13:04:03;;;;;;;5.73;0.50;;;;;;;;;;5088152;28;20024;-66
2021/01/19 13:06:29;;;;;;;3.23;0.90;;;;;;;;;;5092005;28;20111;-66
2021/01/19 13:08:54;;;;;;;2.10;0.83;;;;;;;;;;5089514;28;20024;-66
2021/01/19 13:11:19;;;;;;;2.03;0.80;;;;;;;;;;5092713;28;20062;-68
2021/01/19 13:13:44;;;;;;;2.00;0.90;;;;;;;;;;5093232;28;20158;-68
2021/01/19 13:16:10;;;;;;;1.60;0.50;;;;;;;;;;5093424;28;20063;-68
2021/01/19 13:18:35;;;;;;;1.43;0.80;;;;;;;;;;5090930;28;20024;-69
2021/01/19 13:21:00;;;;;;;1.00;0.40;;;;;;;;;;5092271;28;20024;-67
2021/01/19 13:23:26;;;;;;;3.43;1.10;;;;;;;;;;5091832;28;20118;-68
2021/01/19 13:25:51;;;;;;;3.83;1.17;;;;;;;;;;5091785;28;20111;-66
2021/01/19 13:28:16;;;;;;;1.57;0.90;;;;;;;;;;5093102;28;20047;-68
2021/01/19 13:30:42;;;;;;;3.57;0.83;;;;;;;;;;5090194;28;20043;-67
2021/01/19 13:33:07;;;;;;;4.17;1.67;;;;;;;;;;5093375;28;20039;-66
2021/01/19 13:35:32;;;;;;;3.80;2.00;;;;;;;;;;5091873;28;20024;-67
2021/01/19 13:37:58;;;;;;;3.80;1.33;;;;;;;;;;5092712;28;20095;-65
2021/01/19 13:40:23;;;;;;;3.27;1.10;;;;;;;;;;5089752;28;20028;-65
2021/01/19 13:42:48;;;;;;;2.07;0.70;;;;;;;;;;5093297;28;20532;-66
2021/01/19 13:45:14;;;;;;;3.20;0.70;;;;;;;;;;5081357;28;20021;-66
2021/01/19 13:47:39;;;;;;;1.93;1.00;;;;;;;;;;5072331;28;20020;-65
2021/01/19 13:50:04;;;;;;;1.23;0.77;;;;;;;;;;5087831;28;20050;-67
2021/01/19 13:52:30;;;;;;;1.73;0.73;;;;;;;;;;5092246;28;20020;-67
2021/01/19 13:54:55;;;;;;;1.80;1.13;;;;;;;;;;5091586;28;20043;-66
2021/01/19 13:57:20;;;;;;;2.37;1.07;;;;;;;;;;5092786;28;20031;-66
2021/01/19 13:59:45;;;;;;;1.50;0.93;;;;;;;;;;5078021;28;20024;-65
2021/01/19 14:02:11;;;;;;;2.30;1.00;;;;;;;;;;5075246;28;20051;-64
2021/01/19 14:04:36;;;;;;;2.03;1.10;;;;;;;;;;5083525;28;20803;-65
2021/01/19 14:07:01;;;;;;;2.80;0.80;;;;;;;;;;5084510;28;20020;-65
2021/01/19 14:09:26;;;;;;;0.80;0.20;;;;;;;;;;5082993;28;20061;-65
2021/01/19 14:11:52;;;;;;;6.87;1.37;;;;;;;;;;5083118;28;20013;-64
2021/01/19 14:14:20;;;;;;;2.27;1.43;;;;;;;;;;5082112;28;20016;-69
2021/01/19 14:16:46;;;;;;;0.50;0.20;;;;;;;;;;5082618;28;20062;-67
2021/01/19 14:19:11;;;;;;;1.80;1.20;;;;;;;;;;5085757;28;20024;-67
2021/01/19 14:21:37;;;;;;;2.57;1.30;;;;;;;;;;5090781;28;20647;-66
2021/01/19 14:24:02;;;;;;;3.13;1.93;;;;;;;;;;5085094;28;20020;-66
2021/01/19 14:26:28;;;;;;;1.23;0.33;;;;;;;;;;5083199;28;20020;-67
2021/01/19 14:28:53;;;;;;;2.83;1.70;;;;;;;;;;5077901;28;20603;-66
2021/01/19 14:31:19;;;;;;;2.67;1.60;;;;;;;;;;5088149;28;20047;-67
2021/01/19 14:33:44;;;;;;;4.30;1.23;;;;;;;;;;5082225;28;20012;-69
2021/01/19 14:36:09;;;;;;;4.60;1.60;;;;;;;;;;5085158;28;20058;-69
2021/01/19 14:38:35;;;;;;;2.70;1.77;;;;;;;;;;5081037;28;20072;-70
2021/01/19 14:41:01;;;;;;;3.27;1.50;;;;;;;;;;5082917;28;20028;-69
2021/01/19 14:43:29;;;;;;;2.30;0.87;;;;;;;;;;5084661;28;20034;-68
2021/01/19 14:45:54;;;;;;;0.70;0.47;;;;;;;;;;5080633;28;20116;-66
2021/01/19 14:48:20;;;;;;;3.00;0.60;;;;;;;;;;5080439;28;20118;-66